KFAT/FAT METAR and TAF weather

Enter ICAO airport designator
Station Type Date Time Source
KFAT METAR 2023/01/30 10:53 UTC NOAA

KFAT 301053Z 32003KT 10SM SCT060 BKN110 OVC150 06/05 A2995 RMK AO2 SLP141 T00560050


Station Type Date Time Source
KFAT Decoded METAR 2023/01/30 10:53 UTC NOAA

FRESNO AIR TERMINAL, CA, United States (KFAT) 36-47N 119-43W 104M
Jan 30, 2023 - 05:53 AM EST / 2023.01.30 1053 UTC
Wind: from the NW (320 degrees) at 3 MPH (3 KT):0
Visibility: 10 mile(s):0
Sky conditions: overcast
Temperature: 42.1 F (5.6 C)
Dew Point: 41.0 F (5.0 C)
Relative Humidity: 95%
Pressure (altimeter): 29.95 in. Hg (1014 hPa)
ob: KFAT 301053Z 32003KT 10SM SCT060 BKN110 OVC150 06/05 A2995 RMK AO2 SLP141 T00560050
cycle: 11

Station Type Date Time Source
KFAT TAF 2023/01/30 12:22 UTC NOAA

TAF KFAT 301120Z 3012/3112 32003KT P6SM SCT060 BKN110

Example: see airport list